Time;durP1;ratioP1;P1;durP2;ratioP2;P2;SDS_P1;SDS_P2;PMS_P1;PMS_P2;Temp;Humidity;BMP_temperature;BMP_pressure;BME280_temperature;BME280_humidity;BME280_pressure;Samples;Min_cycle;Max_cycle;Signal;HPM_P1;HPM_P2
2023/08/31 00:02:11;;;;;;;0.30;0.10;;;11.70;99.90;;;;;;4953956;28;20501;-90
2023/08/31 00:04:37;;;;;;;0.47;0.10;;;11.70;99.90;;;;;;4953896;28;20027;-91
2023/08/31 00:07:03;;;;;;;0.73;0.10;;;11.60;99.90;;;;;;4982603;28;20373;-87
2023/08/31 00:09:31;;;;;;;0.75;0.20;;;11.60;99.90;;;;;;4953251;28;20479;-92
2023/08/31 00:11:57;;;;;;;0.35;0.10;;;11.60;99.90;;;;;;4968560;28;20034;-90
2023/08/31 00:14:24;;;;;;;0.50;0.20;;;11.60;99.90;;;;;;4969688;28;20104;-92
2023/08/31 00:16:50;;;;;;;1.08;0.20;;;11.60;99.90;;;;;;4981356;28;20049;-90
2023/08/31 00:19:16;;;;;;;1.20;0.20;;;11.60;99.90;;;;;;4968323;28;20121;-91
2023/08/31 00:21:42;;;;;;;0.57;0.20;;;11.50;99.90;;;;;;4968606;28;20038;-89
2023/08/31 00:24:09;;;;;;;0.60;0.20;;;11.50;99.90;;;;;;4951338;28;20027;-88
2023/08/31 00:26:40;;;;;;;1.38;0.30;;;11.50;99.90;;;;;;4969934;28;20026;-90
2023/08/31 00:29:06;;;;;;;0.50;0.20;;;11.50;99.90;;;;;;4953489;28;20503;-92
2023/08/31 00:31:33;;;;;;;0.32;0.20;;;11.50;99.90;;;;;;4968726;28;20038;-91
2023/08/31 00:34:04;;;;;;;0.95;0.20;;;11.40;99.90;;;;;;4968796;28;20037;-89
2023/08/31 00:36:33;;;;;;;0.50;0.20;;;11.40;99.90;;;;;;4948258;28;20396;-90
2023/08/31 00:39:06;;;;;;;0.50;0.10;;;11.50;99.90;;;;;;4968735;28;20054;-88
2023/08/31 00:41:32;;;;;;;2.90;0.20;;;11.50;99.90;;;;;;4984188;28;20034;-91
2023/08/31 00:43:58;;;;;;;1.75;0.30;;;11.40;99.90;;;;;;4974308;28;20081;-89
2023/08/31 00:46:27;;;;;;;0.77;0.20;;;11.40;99.90;;;;;;4959531;28;20121;-89
2023/08/31 00:48:54;;;;;;;1.45;0.20;;;11.40;99.90;;;;;;4958519;28;20117;-91
2023/08/31 00:51:20;;;;;;;0.82;0.30;;;11.40;99.90;;;;;;4958470;28;20034;-91
2023/08/31 00:53:46;;;;;;;0.80;0.30;;;11.40;99.90;;;;;;4959254;28;20026;-90
2023/08/31 00:56:13;;;;;;;1.05;0.28;;;11.30;99.90;;;;;;4958150;28;20047;-90
2023/08/31 00:58:40;;;;;;;0.70;0.30;;;11.30;99.90;;;;;;4975630;28;20046;-89
2023/08/31 01:01:25;;;;;;;0.80;0.40;;;11.30;99.90;;;;;;4974986;28;20034;-89
2023/08/31 01:04:18;;;;;;;1.95;0.50;;;11.30;99.90;;;;;;4974335;28;20030;-89
2023/08/31 01:07:04;;;;;;;1.20;0.40;;;11.30;99.90;;;;;;4974847;28;20031;-89
2023/08/31 01:09:46;;;;;;;2.17;0.80;;;11.30;99.90;;;;;;4957620;28;20041;-89
2023/08/31 01:12:37;;;;;;;2.85;1.45;;;11.30;99.90;;;;;;4973469;28;20662;-91
2023/08/31 01:15:07;;;;;;;3.78;1.50;;;11.30;99.90;;;;;;4954246;28;20047;-90
2023/08/31 01:17:42;;;;;;;2.83;1.00;;;11.30;99.90;;;;;;4958674;28;20051;-90
2023/08/31 01:20:11;;;;;;;1.35;0.68;;;11.20;99.90;;;;;;4975010;28;20031;-89
2023/08/31 01:22:55;;;;;;;1.67;0.65;;;11.20;99.90;;;;;;4972616;28;20054;-91
2023/08/31 01:25:21;;;;;;;2.20;0.70;;;11.20;99.90;;;;;;4959052;28;20383;-91
2023/08/31 01:27:48;;;;;;;1.45;0.75;;;11.10;99.90;;;;;;4959906;28;20022;-90
2023/08/31 01:30:15;;;;;;;2.42;0.50;;;11.10;99.90;;;;;;4954391;28;20057;-89
2023/08/31 01:32:47;;;;;;;1.45;0.57;;;11.10;99.90;;;;;;4973596;28;20054;-90
2023/08/31 01:35:17;;;;;;;1.80;0.70;;;11.10;99.90;;;;;;4972800;28;20368;-90
2023/08/31 01:37:52;;;;;;;1.58;0.60;;;11.20;99.90;;;;;;4986044;28;20502;-90
2023/08/31 01:40:35;;;;;;;2.40;1.30;;;11.10;99.90;;;;;;4970417;28;20081;-89
2023/08/31 01:43:06;;;;;;;1.25;0.60;;;11.10;99.90;;;;;;4975118;28;20031;-90
2023/08/31 01:45:34;;;;;;;2.08;0.90;;;11.10;99.90;;;;;;4958811;28;20089;-90
2023/08/31 01:48:00;;;;;;;2.15;1.08;;;11.10;99.90;;;;;;4955203;28;20395;-89
2023/08/31 01:50:26;;;;;;;2.97;1.58;;;11.10;99.90;;;;;;4974501;28;20031;-88
2023/08/31 01:52:55;;;;;;;3.53;1.75;;;11.10;99.90;;;;;;4974376;28;20186;-88
2023/08/31 01:55:22;;;;;;;4.40;2.20;;;11.10;99.90;;;;;;4968800;28;20038;-88
2023/08/31 01:57:48;;;;;;;3.13;0.95;;;11.10;99.90;;;;;;4968565;28;20031;-90
2023/08/31 02:00:20;;;;;;;2.85;1.08;;;11.10;99.90;;;;;;4970387;28;20626;-91
2023/08/31 02:02:49;;;;;;;2.70;1.20;;;11.10;99.90;;;;;;4955964;28;20030;-90
2023/08/31 02:05:15;;;;;;;2.17;1.02;;;11.00;99.90;;;;;;4969935;28;20027;-90
2023/08/31 02:07:40;;;;;;;2.28;1.05;;;11.10;99.90;;;;;;4971746;28;20029;-89
2023/08/31 02:10:06;;;;;;;1.70;0.70;;;11.20;99.90;;;;;;4969964;28;20411;-89
2023/08/31 02:12:36;;;;;;;2.63;0.88;;;11.10;99.90;;;;;;4956587;28;20026;-90
2023/08/31 02:15:02;;;;;;;1.75;0.70;;;11.10;99.90;;;;;;4954768;28;20406;-91
2023/08/31 02:17:28;;;;;;;1.63;0.70;;;11.20;99.90;;;;;;4969808;28;20066;-90
2023/08/31 02:19:53;;;;;;;2.20;1.00;;;11.30;99.90;;;;;;4955372;28;20054;-89
2023/08/31 02:22:21;;;;;;;1.92;0.98;;;11.30;99.90;;;;;;4954200;28;20027;-91
2023/08/31 02:24:47;;;;;;;2.00;0.90;;;11.30;99.90;;;;;;4954802;28;20028;-91
2023/08/31 02:27:13;;;;;;;3.90;2.42;;;11.30;99.90;;;;;;4955116;28;20477;-89
2023/08/31 02:29:39;;;;;;;3.58;2.55;;;11.40;99.90;;;;;;4955371;28;20023;-90
2023/08/31 02:32:05;;;;;;;3.42;2.35;;;11.40;99.90;;;;;;4954954;28;20035;-89
2023/08/31 02:34:32;;;;;;;4.47;2.47;;;11.40;99.90;;;;;;4969629;28;20030;-90
2023/08/31 02:36:58;;;;;;;2.67;1.60;;;11.50;99.90;;;;;;4954739;28;20043;-90
2023/08/31 02:39:26;;;;;;;3.65;1.73;;;11.50;99.90;;;;;;4952616;28;20062;-90
2023/08/31 02:41:52;;;;;;;2.60;1.30;;;11.50;99.90;;;;;;4971568;28;20026;-89
2023/08/31 02:44:18;;;;;;;3.95;1.23;;;11.50;99.90;;;;;;4950791;28;21798;-91
2023/08/31 02:46:43;;;;;;;3.58;1.23;;;11.50;99.90;;;;;;4968933;28;20042;-91
2023/08/31 02:49:11;;;;;;;3.30;2.00;;;11.50;99.90;;;;;;4952894;28;20372;-89
2023/08/31 02:51:37;;;;;;;2.70;1.38;;;11.60;99.90;;;;;;4967887;28;20048;-90
2023/08/31 02:54:03;;;;;;;4.00;2.97;;;11.60;99.90;;;;;;4950885;28;20027;-89
2023/08/31 02:56:29;;;;;;;4.32;2.63;;;11.60;99.90;;;;;;4949456;28;20106;-90
2023/08/31 02:58:55;;;;;;;3.20;2.20;;;11.70;99.90;;;;;;4984643;28;20149;-89
2023/08/31 03:01:23;;;;;;;3.17;1.70;;;11.70;99.90;;;;;;4967881;28;20054;-88
2023/08/31 03:03:50;;;;;;;3.72;1.88;;;11.70;99.90;;;;;;4970346;28;20026;-91
2023/08/31 03:06:16;;;;;;;2.47;1.20;;;11.70;99.90;;;;;;4952898;28;20027;-90
2023/08/31 03:08:41;;;;;;;2.58;1.30;;;11.60;99.90;;;;;;4970680;28;20031;-90
2023/08/31 03:11:07;;;;;;;1.77;1.00;;;11.60;99.90;;;;;;4983893;28;20031;-90
2023/08/31 03:13:35;;;;;;;4.10;1.27;;;11.60;99.90;;;;;;4954226;28;20101;-89
2023/08/31 03:16:02;;;;;;;6.55;4.70;;;11.60;99.90;;;;;;4954218;28;20043;-90
2023/08/31 03:18:28;;;;;;;5.93;3.72;;;11.70;99.90;;;;;;4970691;28;20078;-90
2023/08/31 03:20:55;;;;;;;7.40;3.45;;;11.70;99.90;;;;;;4969234;28;20118;-90
2023/08/31 03:23:21;;;;;;;4.68;3.05;;;11.70;99.90;;;;;;4955308;28;20023;-88
2023/08/31 03:25:47;;;;;;;3.25;2.38;;;11.70;99.90;;;;;;4953078;28;20029;-89
2023/08/31 03:28:13;;;;;;;4.78;2.03;;;11.70;99.90;;;;;;4969966;28;20046;-90
2023/08/31 03:30:38;;;;;;;2.88;2.08;;;11.70;99.90;;;;;;4954293;28;20117;-91
2023/08/31 03:33:04;;;;;;;4.35;2.17;;;11.80;99.90;;;;;;4970331;28;20166;-90
2023/08/31 03:35:32;;;;;;;2.35;1.60;;;11.80;99.90;;;;;;4967918;28;20476;-90
2023/08/31 03:37:59;;;;;;;2.92;1.52;;;11.80;99.90;;;;;;4954360;28;20039;-90
2023/08/31 03:40:26;;;;;;;2.03;1.40;;;11.80;99.90;;;;;;4954447;28;20105;-91
2023/08/31 03:42:53;;;;;;;4.07;2.08;;;11.90;99.90;;;;;;4953823;28;20424;-91
2023/08/31 03:45:20;;;;;;;2.92;1.48;;;11.90;99.90;;;;;;4954163;28;20034;-92
2023/08/31 03:47:46;;;;;;;3.80;1.88;;;11.90;99.90;;;;;;4952781;28;20031;-88
2023/08/31 03:50:12;;;;;;;2.42;1.02;;;11.90;99.90;;;;;;4981039;28;20049;-89
2023/08/31 03:52:38;;;;;;;2.38;1.20;;;11.90;99.90;;;;;;4952846;28;20114;-91
2023/08/31 03:55:05;;;;;;;2.35;1.20;;;11.90;99.90;;;;;;4953995;28;20058;-90
2023/08/31 03:57:32;;;;;;;2.03;1.30;;;11.90;99.90;;;;;;4969408;28;20039;-90
2023/08/31 04:00:12;;;;;;;2.47;1.20;;;11.90;99.90;;;;;;4953971;28;20030;-91
2023/08/31 04:02:43;;;;;;;2.63;1.52;;;11.90;99.90;;;;;;4970576;28;20118;-91
2023/08/31 04:05:10;;;;;;;2.13;1.13;;;11.80;99.90;;;;;;4949873;28;20024;-90
2023/08/31 04:07:35;;;;;;;3.53;0.98;;;11.70;99.90;;;;;;4951764;28;20121;-90
2023/08/31 04:10:02;;;;;;;2.42;1.60;;;11.70;99.90;;;;;;4952661;28;20029;-89
2023/08/31 04:12:29;;;;;;;2.78;1.20;;;11.70;99.90;;;;;;4950629;28;20027;-89
2023/08/31 04:14:55;;;;;;;3.75;1.30;;;11.60;99.90;;;;;;4951828;28;20042;-88
2023/08/31 04:17:20;;;;;;;2.35;1.15;;;11.60;99.90;;;;;;4952911;28;20042;-90
2023/08/31 04:19:46;;;;;;;2.88;1.60;;;11.70;99.90;;;;;;4968538;28;20479;-89
2023/08/31 04:22:12;;;;;;;2.08;1.38;;;11.60;99.90;;;;;;4953360;28;20054;-89
2023/08/31 04:24:38;;;;;;;3.35;2.08;;;11.60;99.90;;;;;;4952996;28;20114;-90
2023/08/31 04:27:04;;;;;;;2.35;1.42;;;11.60;99.90;;;;;;4953054;28;20039;-90
2023/08/31 04:29:29;;;;;;;4.55;1.80;;;11.60;99.90;;;;;;4953424;28;20491;-89
2023/08/31 04:31:55;;;;;;;1.95;1.15;;;11.60;99.90;;;;;;4953332;28;20054;-89
2023/08/31 04:34:21;;;;;;;3.17;1.75;;;11.70;99.90;;;;;;4952513;28;20483;-89
2023/08/31 04:36:46;;;;;;;3.15;1.98;;;11.70;99.90;;;;;;4951891;28;20043;-88
2023/08/31 04:39:12;;;;;;;4.53;2.10;;;11.60;99.90;;;;;;4969272;28;20031;-89
2023/08/31 04:41:38;;;;;;;3.42;2.20;;;11.60;99.90;;;;;;4953227;28;20041;-89
2023/08/31 04:44:04;;;;;;;5.35;2.03;;;11.60;99.90;;;;;;4966650;28;20038;-90
2023/08/31 04:46:29;;;;;;;2.50;1.85;;;11.60;99.90;;;;;;4953003;28;20034;-89
2023/08/31 04:48:55;;;;;;;3.55;1.88;;;11.60;99.90;;;;;;4950783;28;20416;-90
2023/08/31 04:51:41;;;;;;;3.30;2.00;;;11.60;99.90;;;;;;4948694;28;20028;-90
2023/08/31 04:54:07;;;;;;;2.08;1.10;;;11.60;99.90;;;;;;4951169;28;20043;-89
2023/08/31 04:56:33;;;;;;;2.35;1.83;;;11.60;99.90;;;;;;4967783;28;20043;-90
2023/08/31 04:59:00;;;;;;;3.42;1.98;;;11.70;99.90;;;;;;4952018;28;20531;-90
2023/08/31 05:01:26;;;;;;;3.10;1.85;;;11.70;99.90;;;;;;4967775;28;20031;-90
2023/08/31 05:03:52;;;;;;;3.80;1.98;;;11.70;99.90;;;;;;4966756;28;20054;-89
2023/08/31 05:06:17;;;;;;;4.18;2.10;;;11.70;99.90;;;;;;4952992;28;20027;-89
2023/08/31 05:08:43;;;;;;;3.45;1.60;;;11.80;99.90;;;;;;4966242;28;20122;-90
2023/08/31 05:11:09;;;;;;;3.00;2.08;;;11.80;99.90;;;;;;4951506;28;20086;-89
2023/08/31 05:13:35;;;;;;;3.72;2.88;;;11.90;99.90;;;;;;4952762;28;20030;-91
2023/08/31 05:16:00;;;;;;;4.00;2.65;;;11.90;99.90;;;;;;4950399;28;20047;-90
2023/08/31 05:18:26;;;;;;;4.10;2.70;;;12.00;99.90;;;;;;4969747;28;20066;-91
2023/08/31 05:20:52;;;;;;;3.58;2.13;;;12.00;99.90;;;;;;4952967;28;20042;-91
2023/08/31 05:23:17;;;;;;;3.80;2.17;;;12.10;99.90;;;;;;4968103;28;20026;-89
2023/08/31 05:25:44;;;;;;;3.83;2.75;;;12.00;99.90;;;;;;4950521;28;20031;-90
2023/08/31 05:28:09;;;;;;;6.93;6.07;;;12.10;99.90;;;;;;4968515;28;20027;-91
2023/08/31 05:30:35;;;;;;;11.75;9.07;;;12.20;99.90;;;;;;4954812;28;20093;-90
2023/08/31 05:33:02;;;;;;;11.38;8.85;;;12.20;99.90;;;;;;4968345;28;20058;-90
2023/08/31 05:35:29;;;;;;;11.50;9.48;;;12.30;99.90;;;;;;4969918;28;20419;-90
2023/08/31 05:37:55;;;;;;;10.93;8.05;;;12.30;99.90;;;;;;4936104;28;20065;-89
2023/08/31 05:40:21;;;;;;;16.77;11.93;;;12.30;99.90;;;;;;4946613;28;20381;-86
2023/08/31 05:42:47;;;;;;;11.48;10.23;;;12.30;99.90;;;;;;4960628;28;20155;-89
2023/08/31 05:45:13;;;;;;;14.60;12.15;;;12.40;99.90;;;;;;4941991;28;20374;-87
2023/08/31 05:47:40;;;;;;;16.02;12.48;;;12.40;99.90;;;;;;4952574;28;20028;-88
2023/08/31 05:50:07;;;;;;;11.15;9.82;;;12.40;99.90;;;;;;4969994;28;20054;-88
2023/08/31 05:52:32;;;;;;;12.63;11.32;;;12.40;99.90;;;;;;4954985;28;20372;-89
2023/08/31 05:54:58;;;;;;;14.20;10.80;;;12.40;99.90;;;;;;4972041;28;20050;-88
2023/08/31 05:57:27;;;;;;;13.27;10.80;;;12.40;99.90;;;;;;4964743;28;20125;-89
2023/08/31 05:59:53;;;;;;;13.50;10.27;;;12.40;99.90;;;;;;4953844;28;20031;-88
2023/08/31 06:02:19;;;;;;;14.63;12.23;;;12.50;99.90;;;;;;4972087;28;20070;-88
2023/08/31 06:04:50;;;;;;;14.40;12.07;;;12.40;99.90;;;;;;4948233;28;20464;-87
2023/08/31 06:07:16;;;;;;;16.52;13.60;;;12.40;99.90;;;;;;4950579;28;20050;-90
2023/08/31 06:09:42;;;;;;;16.48;12.57;;;12.40;99.90;;;;;;4952322;28;20031;-90
2023/08/31 06:12:07;;;;;;;14.85;11.95;;;12.40;99.90;;;;;;4953817;28;20087;-89
2023/08/31 06:14:33;;;;;;;19.25;13.45;;;12.40;99.90;;;;;;4955763;28;20031;-88
2023/08/31 06:16:59;;;;;;;13.60;11.07;;;12.40;99.90;;;;;;4955689;28;20034;-88
2023/08/31 06:19:24;;;;;;;14.75;11.73;;;12.50;99.90;;;;;;4970094;28;20038;-89
2023/08/31 06:21:50;;;;;;;12.25;10.20;;;12.40;99.90;;;;;;4955350;28;20097;-90
2023/08/31 06:24:16;;;;;;;18.63;14.55;;;12.50;99.90;;;;;;4952879;28;20081;-90
2023/08/31 06:26:41;;;;;;;13.15;11.75;;;12.40;99.90;;;;;;4951511;28;20031;-89
2023/08/31 06:29:11;;;;;;;15.93;13.50;;;12.50;99.90;;;;;;4970558;28;20026;-90
2023/08/31 06:31:37;;;;;;;12.37;10.93;;;12.50;99.90;;;;;;4955109;28;20034;-89
2023/08/31 06:34:04;;;;;;;15.70;12.88;;;12.50;99.90;;;;;;4971375;28;20081;-91
2023/08/31 06:36:29;;;;;;;11.68;10.23;;;12.50;99.90;;;;;;4965185;28;20035;-88
2023/08/31 06:38:55;;;;;;;9.23;8.15;;;12.60;99.90;;;;;;4951867;28;20571;-89
2023/08/31 06:41:21;;;;;;;12.23;11.00;;;12.60;99.90;;;;;;4969332;28;20034;-90
2023/08/31 06:43:47;;;;;;;13.25;11.60;;;12.60;99.90;;;;;;4955048;28;20117;-87
2023/08/31 06:46:12;;;;;;;12.25;10.95;;;12.70;99.90;;;;;;4970281;28;20031;-89
2023/08/31 06:48:38;;;;;;;12.50;10.20;;;12.60;99.90;;;;;;4954224;28;20550;-89
2023/08/31 06:51:04;;;;;;;12.23;10.55;;;12.80;99.90;;;;;;4970356;28;20126;-90
2023/08/31 06:53:31;;;;;;;11.27;9.93;;;12.70;99.90;;;;;;4954254;28;20500;-90
2023/08/31 06:55:57;;;;;;;9.65;7.75;;;12.80;99.90;;;;;;4954361;28;20125;-88
2023/08/31 06:58:24;;;;;;;11.35;9.05;;;13.00;99.90;;;;;;4951000;28;20617;-90
2023/08/31 07:00:49;;;;;;;13.20;10.80;;;13.50;99.90;;;;;;4970494;28;20487;-90
2023/08/31 07:03:15;;;;;;;11.75;10.32;;;13.50;99.90;;;;;;4954764;28;20035;-90
2023/08/31 07:05:43;;;;;;;16.13;13.05;;;13.40;99.90;;;;;;4952683;28;20370;-90
2023/08/31 07:08:09;;;;;;;16.73;12.45;;;13.30;99.90;;;;;;4970481;28;20392;-88
2023/08/31 07:10:38;;;;;;;12.55;11.25;;;13.30;99.90;;;;;;4954624;28;20027;-87
2023/08/31 07:13:04;;;;;;;13.23;10.93;;;13.20;99.90;;;;;;4953077;28;20125;-89
2023/08/31 07:15:30;;;;;;;13.77;11.63;;;13.20;99.90;;;;;;4951847;28;20771;-91
2023/08/31 07:17:56;;;;;;;12.20;10.95;;;13.20;99.90;;;;;;4954631;28;20078;-89
2023/08/31 07:20:21;;;;;;;11.27;9.55;;;13.10;99.90;;;;;;4950494;28;20035;-90
2023/08/31 07:22:47;;;;;;;16.25;12.25;;;13.10;99.90;;;;;;4970427;28;20037;-90
2023/08/31 07:25:13;;;;;;;13.90;11.80;;;13.10;99.90;;;;;;4969637;28;20023;-89
2023/08/31 07:27:39;;;;;;;12.20;10.75;;;13.10;99.90;;;;;;4953745;28;20113;-89
2023/08/31 07:30:06;;;;;;;14.80;11.95;;;13.20;99.90;;;;;;4968470;28;20030;-89
2023/08/31 07:32:32;;;;;;;12.70;10.15;;;13.10;99.90;;;;;;4953491;28;20044;-89
2023/08/31 07:34:58;;;;;;;11.73;9.73;;;13.30;99.90;;;;;;4951477;28;20039;-89
2023/08/31 07:37:23;;;;;;;13.30;11.45;;;13.40;99.90;;;;;;4952784;28;20049;-90
2023/08/31 07:39:49;;;;;;;12.02;10.18;;;13.40;99.90;;;;;;4968756;28;20054;-89
2023/08/31 07:42:15;;;;;;;16.77;11.63;;;13.50;99.90;;;;;;4954056;28;20123;-90
2023/08/31 07:44:41;;;;;;;13.60;10.48;;;13.50;99.90;;;;;;4970083;28;20034;-87
2023/08/31 07:47:07;;;;;;;13.00;10.38;;;13.60;99.90;;;;;;4950677;28;20065;-89
2023/08/31 07:49:33;;;;;;;9.98;8.80;;;13.70;99.90;;;;;;4952856;28;20030;-87
2023/08/31 07:51:59;;;;;;;9.07;8.05;;;13.80;99.90;;;;;;4953667;28;20034;-89
2023/08/31 07:54:25;;;;;;;13.05;8.60;;;13.70;99.90;;;;;;4953171;28;20113;-87
2023/08/31 07:56:52;;;;;;;11.65;7.95;;;13.70;99.90;;;;;;4953837;28;20285;-89
2023/08/31 07:59:18;;;;;;;10.15;8.00;;;13.60;99.90;;;;;;4968208;28;20031;-90
2023/08/31 08:01:44;;;;;;;11.55;7.70;;;13.70;99.90;;;;;;4952816;28;20448;-89
2023/08/31 08:04:11;;;;;;;11.27;7.95;;;13.60;99.90;;;;;;4953099;28;20033;-88
2023/08/31 08:06:37;;;;;;;13.00;7.88;;;13.70;99.90;;;;;;4969621;28;20019;-90
2023/08/31 08:09:04;;;;;;;12.40;7.95;;;13.90;99.90;;;;;;4952039;28;20511;-88
2023/08/31 08:11:30;;;;;;;13.05;8.73;;;13.90;99.90;;;;;;4953839;28;20026;-90
2023/08/31 08:13:56;;;;;;;8.55;6.68;;;13.70;99.90;;;;;;4952794;28;20039;-89
2023/08/31 08:16:22;;;;;;;8.02;5.13;;;13.80;99.90;;;;;;4952387;28;20043;-88
2023/08/31 08:18:49;;;;;;;9.40;6.82;;;13.90;99.90;;;;;;4952506;28;20054;-88
2023/08/31 08:21:15;;;;;;;10.82;8.20;;;13.80;99.90;;;;;;4953802;28;20467;-90
2023/08/31 08:23:41;;;;;;;10.30;8.52;;;13.70;99.90;;;;;;4967794;28;20074;-88
2023/08/31 08:26:07;;;;;;;12.15;9.65;;;13.70;99.90;;;;;;4968005;28;20035;-88
2023/08/31 08:28:33;;;;;;;11.85;7.45;;;13.60;99.90;;;;;;4968645;28;20105;-88
2023/08/31 08:31:03;;;;;;;11.85;8.05;;;13.80;99.90;;;;;;4967962;28;20027;-89
2023/08/31 08:33:29;;;;;;;9.73;8.55;;;13.70;99.90;;;;;;4967109;28;20062;-89
2023/08/31 08:35:58;;;;;;;11.13;7.10;;;13.70;99.90;;;;;;4951915;28;21934;-88
2023/08/31 08:38:25;;;;;;;9.93;7.30;;;13.90;99.90;;;;;;4967369;28;20058;-88
2023/08/31 08:40:51;;;;;;;7.60;6.28;;;14.00;99.90;;;;;;4952381;28;20538;-87
2023/08/31 08:43:26;;;;;;;7.47;4.70;;;14.10;99.90;;;;;;4968513;28;20038;-89
2023/08/31 08:45:54;;;;;;;9.82;7.72;;;14.20;99.90;;;;;;4967722;28;20085;-90
2023/08/31 08:48:21;;;;;;;7.47;5.25;;;14.30;99.90;;;;;;4951171;28;20031;-87
2023/08/31 08:50:48;;;;;;;8.40;5.68;;;14.60;99.90;;;;;;4966875;28;20037;-91
2023/08/31 08:53:15;;;;;;;7.65;4.43;;;14.80;99.90;;;;;;4952131;28;20030;-89
2023/08/31 08:55:43;;;;;;;10.32;6.75;;;15.20;99.90;;;;;;4952196;28;20031;-91
2023/08/31 08:58:09;;;;;;;9.75;7.28;;;15.30;99.90;;;;;;4969122;28;20152;-92
2023/08/31 09:00:36;;;;;;;8.77;7.85;;;15.50;99.90;;;;;;4951209;28;20033;-87
2023/08/31 09:03:04;;;;;;;8.57;5.90;;;15.60;99.90;;;;;;4950768;28;20450;-89
2023/08/31 09:05:33;;;;;;;11.18;6.43;;;15.50;99.90;;;;;;4969798;28;20411;-89
2023/08/31 09:08:10;;;;;;;7.53;4.65;;;15.50;99.90;;;;;;4951291;28;20034;-85
2023/08/31 09:10:45;;;;;;;9.93;5.60;;;15.60;99.90;;;;;;4956473;28;20277;-86
2023/08/31 09:13:13;;;;;;;11.45;6.97;;;15.60;99.90;;;;;;4971379;28;20503;-85
2023/08/31 09:15:44;;;;;;;5.85;5.03;;;15.60;99.90;;;;;;4954867;28;20518;-85
2023/08/31 09:18:26;;;;;;;9.07;6.40;;;15.70;99.90;;;;;;4969058;28;20030;-87
2023/08/31 09:20:52;;;;;;;7.60;5.60;;;15.80;99.90;;;;;;4971849;28;20023;-86
2023/08/31 09:23:18;;;;;;;8.02;5.50;;;15.90;99.90;;;;;;4972071;28;20027;-88
2023/08/31 09:25:55;;;;;;;9.75;5.55;;;16.20;99.90;;;;;;4950935;28;20483;-87
2023/08/31 09:28:27;;;;;;;10.80;5.15;;;16.60;99.90;;;;;;4969077;28;20035;-89
2023/08/31 09:31:02;;;;;;;5.90;4.00;;;17.10;99.90;;;;;;4954915;28;20396;-88
2023/08/31 09:33:28;;;;;;;6.72;2.65;;;17.70;99.90;;;;;;4957714;28;20117;-89
2023/08/31 09:35:59;;;;;;;3.50;1.95;;;17.70;99.90;;;;;;4953832;28;20118;-87
2023/08/31 09:38:25;;;;;;;6.28;3.15;;;17.60;99.90;;;;;;4953946;28;20034;-89
2023/08/31 09:40:51;;;;;;;4.35;2.38;;;16.90;99.90;;;;;;4951837;28;20047;-92
2023/08/31 09:43:22;;;;;;;4.93;3.28;;;17.40;99.90;;;;;;4954789;28;20130;-86
2023/08/31 09:45:49;;;;;;;4.93;2.83;;;17.00;99.90;;;;;;4954573;28;20182;-87
2023/08/31 09:48:15;;;;;;;7.18;3.17;;;17.30;99.90;;;;;;4969108;28;20038;-88
2023/08/31 09:50:43;;;;;;;4.30;2.15;;;17.40;99.90;;;;;;4985153;28;20033;-88
2023/08/31 09:53:10;;;;;;;4.03;1.33;;;17.60;99.90;;;;;;4969717;28;20041;-88
2023/08/31 09:55:39;;;;;;;3.95;1.77;;;17.90;99.90;;;;;;4969939;28;20035;-89
2023/08/31 09:58:07;;;;;;;5.30;2.25;;;17.50;99.90;;;;;;4971780;28;20043;-89
2023/08/31 10:00:35;;;;;;;4.05;1.95;;;17.10;99.90;;;;;;4969039;28;20030;-88
2023/08/31 10:03:03;;;;;;;8.02;3.00;;;17.20;99.90;;;;;;4948957;28;20036;-91
2023/08/31 10:05:29;;;;;;;5.10;2.05;;;16.90;99.90;;;;;;4970438;28;20041;-88
2023/08/31 10:07:58;;;;;;;3.25;1.65;;;17.00;99.90;;;;;;4969643;28;20361;-92
2023/08/31 10:10:24;;;;;;;6.25;1.60;;;17.00;99.90;;;;;;4985023;28;20094;-86
2023/08/31 10:12:51;;;;;;;3.63;1.73;;;17.10;99.90;;;;;;4955563;28;20061;-91
2023/08/31 10:15:18;;;;;;;3.08;1.10;;;17.00;99.90;;;;;;4968834;28;20043;-92
2023/08/31 10:17:45;;;;;;;3.33;1.25;;;17.10;99.90;;;;;;4955004;28;20125;-87
2023/08/31 10:20:14;;;;;;;3.40;1.10;;;16.90;99.90;;;;;;4968761;28;20059;-88
2023/08/31 10:22:40;;;;;;;3.28;0.80;;;17.00;99.90;;;;;;4945323;28;20093;-84
2023/08/31 10:25:07;;;;;;;4.20;1.58;;;17.00;99.90;;;;;;4960877;28;20036;-88
2023/08/31 10:27:51;;;;;;;4.07;1.48;;;17.10;99.90;;;;;;4967246;28;20027;-92
2023/08/31 10:30:23;;;;;;;5.47;1.70;;;17.40;99.90;;;;;;4977482;28;20043;-88
2023/08/31 10:33:07;;;;;;;2.10;1.05;;;17.70;99.90;;;;;;4966539;28;20121;-88
2023/08/31 10:35:48;;;;;;;3.72;1.38;;;17.40;99.90;;;;;;4950595;28;20077;-94
2023/08/31 10:38:32;;;;;;;4.03;1.48;;;17.10;99.90;;;;;;4944299;28;20054;-90
2023/08/31 10:41:07;;;;;;;4.97;1.15;;;16.90;99.90;;;;;;4962673;28;20586;-88
2023/08/31 10:43:59;;;;;;;2.40;0.60;;;17.00;99.90;;;;;;4976001;28;20041;-86
2023/08/31 10:46:29;;;;;;;2.05;0.52;;;17.00;99.90;;;;;;4977390;28;20023;-93
2023/08/31 10:48:57;;;;;;;3.40;0.70;;;17.20;99.90;;;;;;4962603;28;20063;-87
2023/08/31 10:51:29;;;;;;;2.20;0.63;;;17.80;99.90;;;;;;4961512;28;20039;-88
2023/08/31 10:54:04;;;;;;;5.45;0.90;;;17.60;99.90;;;;;;4975661;28;20034;-87
2023/08/31 10:56:31;;;;;;;4.32;0.75;;;17.50;99.90;;;;;;4961700;28;20047;-89
2023/08/31 10:59:00;;;;;;;1.75;0.43;;;17.40;99.90;;;;;;4950053;28;20376;-89
2023/08/31 11:01:45;;;;;;;;;;;18.10;99.90;;;;;;4966542;28;20233;-85
2023/08/31 11:04:11;;;;;;;2.28;0.70;;;18.70;99.90;;;;;;4962696;28;19910;-88
2023/08/31 11:06:36;;;;;;;3.53;0.77;;;19.00;99.90;;;;;;4950209;28;20041;-86
2023/08/31 11:09:03;;;;;;;3.45;0.52;;;18.60;99.90;;;;;;4967418;28;20502;-85
2023/08/31 11:11:38;;;;;;;2.47;0.60;;;18.10;99.90;;;;;;4965233;28;20081;-87
2023/08/31 11:14:04;;;;;;;3.20;0.60;;;17.70;99.90;;;;;;4965791;28;20110;-86
2023/08/31 11:16:30;;;;;;;4.32;0.60;;;17.50;99.90;;;;;;4975452;28;20121;-87
2023/08/31 11:18:56;;;;;;;1.63;0.50;;;17.40;99.90;;;;;;4965042;28;20144;-84
2023/08/31 11:21:22;;;;;;;3.97;0.60;;;17.20;99.90;;;;;;4949683;28;20170;-85
2023/08/31 11:23:48;;;;;;;2.85;0.80;;;17.10;99.90;;;;;;4965946;28;20030;-84
2023/08/31 11:26:14;;;;;;;3.08;0.65;;;16.90;99.90;;;;;;4949280;28;20062;-84
2023/08/31 11:28:43;;;;;;;2.30;0.70;;;16.60;99.90;;;;;;4960978;28;20062;-86
2023/08/31 11:31:09;;;;;;;3.00;0.50;;;16.30;99.90;;;;;;4965385;28;20023;-87
2023/08/31 11:33:37;;;;;;;3.75;0.47;;;16.20;99.90;;;;;;4949291;28;20778;-89
2023/08/31 11:36:03;;;;;;;2.00;0.38;;;16.30;99.90;;;;;;4978731;28;20045;-86
2023/08/31 11:38:29;;;;;;;2.10;0.40;;;16.60;99.90;;;;;;4950566;28;20035;-89
2023/08/31 11:40:58;;;;;;;1.50;0.28;;;17.00;99.90;;;;;;4949105;28;20113;-87
2023/08/31 11:43:24;;;;;;;;;;;17.60;99.90;;;;;;4977343;28;20035;-89
2023/08/31 11:45:50;;;;;;;1.00;0.20;;;17.80;99.90;;;;;;4949970;28;19910;-88
2023/08/31 11:48:16;;;;;;;0.90;0.30;;;18.30;99.90;;;;;;4962937;28;20035;-84
2023/08/31 11:50:42;;;;;;;2.10;0.20;;;18.40;99.90;;;;;;4965869;28;20049;-86
2023/08/31 11:53:09;;;;;;;1.20;0.10;;;18.80;99.90;;;;;;4959524;28;20062;-88
2023/08/31 11:55:34;;;;;;;2.13;0.30;;;19.40;99.90;;;;;;4948685;28;20062;-89
2023/08/31 11:58:00;;;;;;;1.80;0.20;;;19.40;99.90;;;;;;4975854;28;20070;-91
2023/08/31 12:00:26;;;;;;;3.47;0.52;;;19.40;99.90;;;;;;4948713;28;20027;-85
2023/08/31 12:02:58;;;;;;;2.38;0.50;;;19.00;99.90;;;;;;4961163;28;20420;-84
2023/08/31 12:05:25;;;;;;;3.63;0.50;;;19.00;99.90;;;;;;4974969;28;20118;-85
2023/08/31 12:07:54;;;;;;;3.40;0.60;;;19.40;99.90;;;;;;4975358;28;20027;-89
2023/08/31 12:10:20;;;;;;;2.65;0.40;;;19.40;99.90;;;;;;4948393;28;20030;-88
2023/08/31 12:12:46;;;;;;;1.90;0.40;;;19.80;99.90;;;;;;4964219;28;20050;-91
2023/08/31 12:15:11;;;;;;;1.45;0.30;;;19.80;99.90;;;;;;4964533;28;20077;-85
2023/08/31 12:17:39;;;;;;;1.08;0.20;;;20.00;99.90;;;;;;4963403;28;20054;-87
2023/08/31 12:20:06;;;;;;;1.40;0.20;;;20.00;99.90;;;;;;4976922;28;20031;-86
2023/08/31 12:22:32;;;;;;;1.40;0.20;;;19.80;99.90;;;;;;4963925;28;20472;-88
2023/08/31 12:24:58;;;;;;;0.63;0.10;;;19.70;99.90;;;;;;4970507;28;20032;-86
2023/08/31 12:27:24;;;;;;;1.13;0.20;;;19.70;99.90;;;;;;4959434;28;20050;-87
2023/08/31 12:29:50;;;;;;;0.65;0.20;;;19.30;99.90;;;;;;4975767;28;20034;-86
2023/08/31 12:32:19;;;;;;;1.65;0.30;;;19.30;99.90;;;;;;4975465;28;20480;-88
2023/08/31 12:34:45;;;;;;;1.63;0.22;;;19.00;99.90;;;;;;4948350;28;20030;-86
2023/08/31 12:37:10;;;;;;;1.33;0.30;;;19.00;99.90;;;;;;4975380;28;20038;-87
2023/08/31 12:39:37;;;;;;;0.90;0.30;;;18.80;99.90;;;;;;4947278;28;20054;-86
2023/08/31 12:42:03;;;;;;;1.42;0.20;;;18.70;99.90;;;;;;4958385;28;20043;-89
2023/08/31 12:44:29;;;;;;;1.80;0.30;;;19.50;99.90;;;;;;4959772;28;20019;-87
2023/08/31 12:46:54;;;;;;;1.95;0.20;;;19.10;99.90;;;;;;4948464;28;20023;-88